Terminal Aerodrome Forecast
Issued by NWS

Home | Current Version | Previous Version | Graphics & Text | Print | Product List | Glossary On
Versions: 1 2 3 4 5 6 7 8 9 10 11 12 13
000
FTUS43 KICT 192322
TAFRSL
TAF
KRSL 192322Z 2000/2024 17013KT P6SM FEW250
     FM200400 17014KT P6SM FEW250 WS020/19045KT
     FM201400 17019G27KT P6SM SCT200
     FM201700 18027G36KT P6SM BKN100=

USA.gov is the U.S. government's official web portal to all federal, state and local government web resources and services.